Time;durP1;ratioP1;P1;durP2;ratioP2;P2;SDS_P1;SDS_P2;PMS_P1;PMS_P2;Temp;Humidity;BMP_temperature;BMP_pressure;BME280_temperature;BME280_humidity;BME280_pressure;Samples;Min_cycle;Max_cycle;Signal;HPM_P1;HPM_P2
2022/05/19 00:01:40;;;;;;;7.72;5.30;;;;;;;;;;6310913;28;20086;-79
2022/05/19 00:04:42;;;;;;;6.85;5.22;;;;;;;;;;6312208;28;20063;-78
2022/05/19 00:07:43;;;;;;;7.85;5.40;;;;;;;;;;6311775;28;20117;-78
2022/05/19 00:10:45;;;;;;;9.00;5.60;;;;;;;;;;6310959;28;20044;-79
2022/05/19 00:13:47;;;;;;;7.85;5.35;;;;;;;;;;6311014;28;20086;-80
2022/05/19 00:16:49;;;;;;;5.60;4.95;;;;;;;;;;6312657;28;20086;-79
2022/05/19 00:19:51;;;;;;;7.33;5.53;;;;;;;;;;6315854;28;20054;-78
2022/05/19 00:22:55;;;;;;;7.25;5.05;;;;;;;;;;6319935;28;20130;-80
2022/05/19 00:25:57;;;;;;;8.27;5.30;;;;;;;;;;6331304;28;20177;-81
2022/05/19 00:28:58;;;;;;;6.38;5.32;;;;;;;;;;6293269;28;20124;-79
2022/05/19 00:32:00;;;;;;;8.68;5.30;;;;;;;;;;6311073;28;20071;-80
2022/05/19 00:35:02;;;;;;;6.32;5.07;;;;;;;;;;6311126;28;20051;-77
2022/05/19 00:38:04;;;;;;;12.18;6.20;;;;;;;;;;6311507;28;20060;-78
2022/05/19 00:41:07;;;;;;;6.25;5.43;;;;;;;;;;6290999;28;20048;-80
2022/05/19 00:44:09;;;;;;;9.50;5.13;;;;;;;;;;6311095;28;20047;-80
2022/05/19 00:47:20;;;;;;;7.40;5.23;;;;;;;;;;6311209;28;20077;-81
2022/05/19 00:50:33;;;;;;;9.38;5.20;;;;;;;;;;6316354;28;20457;-79
2022/05/19 00:53:40;;;;;;;;;;;;;;;;;;6318197;28;20594;-80
2022/05/19 00:57:07;;;;;;;6.90;5.30;;;;;;;;;;6329762;28;20057;-78
2022/05/19 01:00:15;;;;;;;7.90;4.95;;;;;;;;;;6305133;28;20059;-78
2022/05/19 01:03:19;;;;;;;5.90;4.95;;;;;;;;;;6306582;28;20040;-81
2022/05/19 01:06:24;;;;;;;7.10;5.38;;;;;;;;;;6336789;28;20043;-79
2022/05/19 01:09:28;;;;;;;7.97;5.95;;;;;;;;;;6316053;28;20071;-79
2022/05/19 01:12:29;;;;;;;7.57;5.35;;;;;;;;;;6300159;28;20043;-79
2022/05/19 01:15:34;;;;;;;7.43;5.57;;;;;;;;;;6317737;28;20039;-81
2022/05/19 01:18:38;;;;;;;6.78;5.57;;;;;;;;;;6297763;28;20708;-80
2022/05/19 01:21:39;;;;;;;5.72;4.68;;;;;;;;;;6284239;28;20045;-79
2022/05/19 01:24:58;;;;;;;7.68;5.20;;;;;;;;;;6324533;28;20138;-80
2022/05/19 01:27:59;;;;;;;7.03;5.60;;;;;;;;;;6336209;28;20124;-77
2022/05/19 01:31:01;;;;;;;6.50;5.82;;;;;;;;;;6335391;28;20119;-79
2022/05/19 01:34:05;;;;;;;7.68;5.65;;;;;;;;;;6319595;28;20067;-80
2022/05/19 01:37:07;;;;;;;6.32;5.45;;;;;;;;;;6304814;28;20040;-80
2022/05/19 01:40:21;;;;;;;5.20;4.70;;;;;;;;;;6283963;28;20040;-80
2022/05/19 01:44:00;;;;;;;6.43;4.93;;;;;;;;;;6311531;28;20166;-80
2022/05/19 01:47:13;;;;;;;6.15;5.55;;;;;;;;;;6298210;28;20051;-80
2022/05/19 01:50:50;;;;;;;8.07;5.22;;;;;;;;;;6320112;28;20047;-80
2022/05/19 01:54:25;;;;;;;5.90;5.28;;;;;;;;;;6307042;28;20032;-79
2022/05/19 01:57:33;;;;;;;7.20;5.78;;;;;;;;;;6289050;28;20582;-81
2022/05/19 02:00:35;;;;;;;7.80;5.90;;;;;;;;;;6313199;28;20050;-80
2022/05/19 02:03:43;;;;;;;7.13;5.35;;;;;;;;;;6313727;28;20104;-78
2022/05/19 02:06:59;;;;;;;7.65;5.40;;;;;;;;;;6315018;28;20123;-80
2022/05/19 02:10:09;;;;;;;7.70;5.50;;;;;;;;;;6313047;28;20177;-80
2022/05/19 02:13:11;;;;;;;7.82;5.90;;;;;;;;;;6324377;28;20093;-78
2022/05/19 02:16:15;;;;;;;7.20;6.35;;;;;;;;;;6339939;28;20063;-79
2022/05/19 02:19:24;;;;;;;7.50;5.65;;;;;;;;;;6297185;28;20052;-80
2022/05/19 02:22:39;;;;;;;7.45;5.90;;;;;;;;;;6286763;28;20110;-79
2022/05/19 02:25:49;;;;;;;8.82;6.32;;;;;;;;;;6289207;28;20678;-79
2022/05/19 02:28:57;;;;;;;7.40;6.15;;;;;;;;;;6336631;28;20128;-80
2022/05/19 02:32:00;;;;;;;8.73;5.85;;;;;;;;;;6338672;28;20634;-79
2022/05/19 02:35:04;;;;;;;9.70;6.53;;;;;;;;;;6330647;28;20525;-79
2022/05/19 02:38:07;;;;;;;7.82;6.38;;;;;;;;;;6314554;28;20081;-79
2022/05/19 02:41:09;;;;;;;8.52;6.13;;;;;;;;;;6310382;28;20157;-81
2022/05/19 02:44:10;;;;;;;6.45;5.72;;;;;;;;;;6305767;28;20048;-81
2022/05/19 02:47:12;;;;;;;6.55;5.68;;;;;;;;;;6272532;28;20491;-80
2022/05/19 02:50:15;;;;;;;9.13;5.75;;;;;;;;;;6286308;28;20562;-78
2022/05/19 02:53:19;;;;;;;6.50;5.60;;;;;;;;;;6289124;28;20167;-79
2022/05/19 02:56:21;;;;;;;6.35;5.13;;;;;;;;;;6290919;28;20105;-81
2022/05/19 02:59:22;;;;;;;9.45;6.25;;;;;;;;;;6296020;28;20230;-80
2022/05/19 03:02:24;;;;;;;8.13;6.00;;;;;;;;;;6289818;28;20123;-79
2022/05/19 03:05:29;;;;;;;8.80;6.53;;;;;;;;;;6290082;28;20044;-81
2022/05/19 03:08:37;;;;;;;8.40;6.00;;;;;;;;;;6291292;28;20237;-81
2022/05/19 03:11:39;;;;;;;6.32;5.65;;;;;;;;;;6286985;28;20600;-79
2022/05/19 03:14:40;;;;;;;7.43;5.95;;;;;;;;;;6296591;28;20182;-79
2022/05/19 03:17:43;;;;;;;7.82;5.93;;;;;;;;;;6294699;28;20504;-80
2022/05/19 03:20:45;;;;;;;7.85;6.15;;;;;;;;;;6314463;28;20481;-80
2022/05/19 03:23:47;;;;;;;10.30;7.07;;;;;;;;;;6315006;28;20062;-79
2022/05/19 03:26:48;;;;;;;8.05;5.63;;;;;;;;;;6321149;28;20093;-79
2022/05/19 03:29:51;;;;;;;8.02;5.80;;;;;;;;;;6306279;28;20044;-77
2022/05/19 03:32:52;;;;;;;7.97;6.22;;;;;;;;;;6317363;28;20063;-78
2022/05/19 03:35:59;;;;;;;7.65;6.18;;;;;;;;;;6340060;28;20161;-80
2022/05/19 03:39:01;;;;;;;10.82;6.78;;;;;;;;;;6340818;28;20071;-79
2022/05/19 03:42:05;;;;;;;7.50;6.57;;;;;;;;;;6336397;28;20261;-81
2022/05/19 03:45:07;;;;;;;8.43;6.43;;;;;;;;;;6304561;28;20114;-82
2022/05/19 03:48:09;;;;;;;8.70;6.60;;;;;;;;;;6298129;28;20055;-81
2022/05/19 03:51:17;;;;;;;9.53;7.17;;;;;;;;;;6313256;28;20040;-81
2022/05/19 03:54:20;;;;;;;7.05;6.20;;;;;;;;;;6298291;28;20188;-82
2022/05/19 03:57:23;;;;;;;8.33;6.37;;;;;;;;;;6325118;28;20132;-82
2022/05/19 04:00:25;;;;;;;7.97;6.10;;;;;;;;;;6321098;28;20043;-81
2022/05/19 04:03:27;;;;;;;8.75;6.20;;;;;;;;;;6310971;28;20050;-82
2022/05/19 04:06:29;;;;;;;11.18;7.55;;;;;;;;;;6293024;28;20128;-80
2022/05/19 04:09:31;;;;;;;9.52;6.55;;;;;;;;;;6287544;28;20173;-79
2022/05/19 04:12:33;;;;;;;6.90;5.80;;;;;;;;;;6304376;28;20477;-80
2022/05/19 04:15:35;;;;;;;9.57;6.97;;;;;;;;;;6295041;28;20080;-80
2022/05/19 04:18:38;;;;;;;10.45;7.53;;;;;;;;;;6292536;28;20047;-79
2022/05/19 04:21:39;;;;;;;10.45;7.50;;;;;;;;;;6313438;28;20175;-79
2022/05/19 04:24:41;;;;;;;11.48;8.52;;;;;;;;;;6313223;28;20446;-78
2022/05/19 04:27:42;;;;;;;12.30;7.85;;;;;;;;;;6296122;28;20405;-80
2022/05/19 04:30:44;;;;;;;12.05;8.55;;;;;;;;;;6311772;28;20169;-80
2022/05/19 04:33:46;;;;;;;13.02;8.73;;;;;;;;;;6323413;28;20127;-80
2022/05/19 04:36:47;;;;;;;11.73;8.10;;;;;;;;;;6337403;28;20127;-79
2022/05/19 04:39:49;;;;;;;9.82;7.65;;;;;;;;;;6319030;28;20050;-79
2022/05/19 04:42:50;;;;;;;9.82;7.07;;;;;;;;;;6335973;28;20047;-79
2022/05/19 04:45:54;;;;;;;9.63;7.07;;;;;;;;;;6335102;28;20069;-78
2022/05/19 04:48:56;;;;;;;10.30;7.00;;;;;;;;;;6326037;28;20101;-80
2022/05/19 04:51:57;;;;;;;12.23;8.00;;;;;;;;;;6294863;28;20124;-79
2022/05/19 04:55:00;;;;;;;10.63;7.90;;;;;;;;;;6296785;28;20044;-79
2022/05/19 04:58:09;;;;;;;10.20;6.85;;;;;;;;;;6334066;28;20043;-79
2022/05/19 05:01:11;;;;;;;7.50;6.70;;;;;;;;;;6338783;28;20055;-80
2022/05/19 05:04:14;;;;;;;10.13;7.00;;;;;;;;;;6306305;28;20951;-80
2022/05/19 05:07:16;;;;;;;9.43;7.05;;;;;;;;;;6298327;28;20203;-81
2022/05/19 05:10:18;;;;;;;7.75;6.40;;;;;;;;;;6314361;28;20051;-80
2022/05/19 05:13:19;;;;;;;8.80;6.60;;;;;;;;;;6314157;28;20097;-79
2022/05/19 05:16:25;;;;;;;9.60;6.72;;;;;;;;;;6297302;28;20067;-80
2022/05/19 05:19:26;;;;;;;8.75;6.85;;;;;;;;;;6296629;28;20051;-78
2022/05/19 05:22:30;;;;;;;8.52;7.00;;;;;;;;;;6314389;28;20074;-80
2022/05/19 05:25:32;;;;;;;8.20;6.72;;;;;;;;;;6316314;28;20040;-78
2022/05/19 05:28:33;;;;;;;9.23;6.80;;;;;;;;;;6314620;28;20070;-79
2022/05/19 05:31:35;;;;;;;12.00;7.05;;;;;;;;;;6318468;28;20044;-80
2022/05/19 05:34:37;;;;;;;8.20;6.38;;;;;;;;;;6321187;28;20073;-81
2022/05/19 05:37:39;;;;;;;9.05;6.85;;;;;;;;;;6347231;28;20451;-80
2022/05/19 05:40:40;;;;;;;11.93;6.72;;;;;;;;;;6341587;28;20121;-81
2022/05/19 05:43:42;;;;;;;9.38;6.53;;;;;;;;;;6302286;28;20036;-81
2022/05/19 05:46:44;;;;;;;11.68;6.15;;;;;;;;;;6320393;28;20036;-80
2022/05/19 05:49:47;;;;;;;7.72;6.10;;;;;;;;;;6332039;28;20047;-79
2022/05/19 05:52:49;;;;;;;9.48;6.80;;;;;;;;;;6299604;28;20040;-79
2022/05/19 05:55:52;;;;;;;6.90;6.20;;;;;;;;;;6300756;28;20426;-82
2022/05/19 05:58:56;;;;;;;9.05;6.38;;;;;;;;;;6332660;28;20050;-82
2022/05/19 06:01:57;;;;;;;8.98;6.22;;;;;;;;;;6341769;28;20039;-80
2022/05/19 06:04:59;;;;;;;7.65;5.47;;;;;;;;;;6340799;28;20076;-79
2022/05/19 06:08:01;;;;;;;8.07;5.93;;;;;;;;;;6343564;28;20132;-80
2022/05/19 06:11:05;;;;;;;6.93;5.25;;;;;;;;;;6313637;28;20043;-79
2022/05/19 06:14:07;;;;;;;7.55;5.18;;;;;;;;;;6316488;28;20040;-81
2022/05/19 06:17:08;;;;;;;6.45;5.45;;;;;;;;;;6314991;28;20036;-80
2022/05/19 06:20:14;;;;;;;7.07;6.38;;;;;;;;;;6294995;28;20047;-79
2022/05/19 06:23:16;;;;;;;7.10;5.85;;;;;;;;;;6316621;28;20137;-81
2022/05/19 06:26:18;;;;;;;9.02;4.70;;;;;;;;;;6305082;28;20182;-81
2022/05/19 06:29:19;;;;;;;5.55;4.22;;;;;;;;;;6323551;28;20120;-80
2022/05/19 06:32:21;;;;;;;7.93;4.47;;;;;;;;;;6340420;28;20092;-80
2022/05/19 06:35:28;;;;;;;7.53;4.75;;;;;;;;;;6323081;28;20040;-81
2022/05/19 06:38:31;;;;;;;6.28;4.60;;;;;;;;;;6343055;28;20131;-79
2022/05/19 06:44:54;;;;;;;4.45;3.70;;;;;;;;;;6321394;28;20106;-82
2022/05/19 06:47:57;;;;;;;3.63;3.33;;;;;;;;;;6300488;28;20107;-78
2022/05/19 06:50:58;;;;;;;4.85;3.30;;;;;;;;;;6313041;28;20051;-81
2022/05/19 06:54:21;;;;;;;4.63;3.55;;;;;;;;;;6319579;28;20085;-81
2022/05/19 06:57:24;;;;;;;4.93;3.50;;;;;;;;;;6309358;28;20036;-81
2022/05/19 07:00:27;;;;;;;3.95;3.17;;;;;;;;;;6301289;28;20071;-81
2022/05/19 07:03:29;;;;;;;3.00;2.75;;;;;;;;;;6295255;28;20048;-82
2022/05/19 07:06:31;;;;;;;4.38;3.10;;;;;;;;;;6277929;28;20449;-80
2022/05/19 07:09:33;;;;;;;3.60;2.70;;;;;;;;;;6291904;28;20056;-81
2022/05/19 07:12:38;;;;;;;4.65;2.60;;;;;;;;;;6284074;28;20032;-80
2022/05/19 07:15:39;;;;;;;5.15;2.75;;;;;;;;;;6292126;28;20064;-80
2022/05/19 07:18:41;;;;;;;2.40;2.20;;;;;;;;;;6295852;28;20087;-82
2022/05/19 07:21:44;;;;;;;3.72;2.47;;;;;;;;;;6289101;28;20040;-79
2022/05/19 07:24:46;;;;;;;3.78;2.30;;;;;;;;;;6289770;28;20114;-78
2022/05/19 07:27:48;;;;;;;3.60;2.43;;;;;;;;;;6302035;28;20060;-79
2022/05/19 07:30:49;;;;;;;5.65;2.35;;;;;;;;;;6316730;28;20520;-80
2022/05/19 07:33:53;;;;;;;5.20;2.60;;;;;;;;;;6290903;28;20063;-80
2022/05/19 07:36:55;;;;;;;2.72;2.10;;;;;;;;;;6291936;28;20048;-80
2022/05/19 07:39:57;;;;;;;3.75;2.30;;;;;;;;;;6291322;28;20072;-80
2022/05/19 07:43:35;;;;;;;2.65;2.20;;;;;;;;;;6301795;28;20060;-79
2022/05/19 07:46:20;;;;;;;7.28;2.42;;;;;;;;;;6293362;28;20052;-81
2022/05/19 07:49:22;;;;;;;4.72;2.67;;;;;;;;;;6307268;28;20447;-84
2022/05/19 07:52:25;;;;;;;4.38;2.30;;;;;;;;;;6290840;28;20082;-82
2022/05/19 07:55:26;;;;;;;6.22;2.40;;;;;;;;;;6292137;28;20071;-80
2022/05/19 07:58:29;;;;;;;2.13;2.00;;;;;;;;;;6285940;28;20475;-80
2022/05/19 08:01:31;;;;;;;3.85;2.60;;;;;;;;;;6289081;28;20044;-79
2022/05/19 08:04:35;;;;;;;4.35;2.30;;;;;;;;;;6289499;28;20040;-81
2022/05/19 08:07:37;;;;;;;3.22;2.38;;;;;;;;;;6289855;28;20092;-79
2022/05/19 08:10:38;;;;;;;2.33;2.13;;;;;;;;;;6305706;28;20244;-81
2022/05/19 08:17:01;;;;;;;6.07;2.33;;;;;;;;;;6286358;28;20062;-80
2022/05/19 08:20:04;;;;;;;4.45;2.47;;;;;;;;;;6285385;28;20041;-79
2022/05/19 08:23:08;;;;;;;3.95;2.40;;;;;;;;;;6287084;28;20040;-78
2022/05/19 08:26:10;;;;;;;3.13;2.00;;;;;;;;;;6287196;28;20135;-78
2022/05/19 08:29:15;;;;;;;3.20;2.30;;;;;;;;;;6287281;28;20044;-79
2022/05/19 08:32:17;;;;;;;4.28;2.33;;;;;;;;;;6286072;28;20048;-80
2022/05/19 08:35:19;;;;;;;3.60;2.30;;;;;;;;;;6284678;28;20429;-79
2022/05/19 08:38:21;;;;;;;4.30;2.10;;;;;;;;;;6286680;28;20166;-80
2022/05/19 08:41:35;;;;;;;3.90;2.30;;;;;;;;;;6304280;28;20145;-78
2022/05/19 08:44:45;;;;;;;5.15;2.47;;;;;;;;;;6311846;28;20041;-78
2022/05/19 08:47:50;;;;;;;3.58;2.00;;;;;;;;;;6291268;28;20131;-81
2022/05/19 08:51:03;;;;;;;3.03;2.40;;;;;;;;;;6297053;28;20536;-79
2022/05/19 08:54:08;;;;;;;2.47;2.10;;;;;;;;;;6287039;28;20062;-78
2022/05/19 08:57:25;;;;;;;2.38;2.17;;;;;;;;;;6300068;28;20124;-80
2022/05/19 09:00:37;;;;;;;5.38;2.00;;;;;;;;;;6313149;28;20410;-80
2022/05/19 09:03:56;;;;;;;3.95;2.30;;;;;;;;;;6308388;28;20129;-79
2022/05/19 09:07:57;;;;;;;2.10;1.90;;;;;;;;;;6313082;28;20043;-78
2022/05/19 09:11:14;;;;;;;4.50;2.28;;;;;;;;;;6285642;28;20036;-80
2022/05/19 09:14:27;;;;;;;4.32;2.05;;;;;;;;;;6285189;28;20095;-80
2022/05/19 09:17:31;;;;;;;3.17;2.00;;;;;;;;;;6286198;28;20079;-78
2022/05/19 09:20:44;;;;;;;3.25;2.00;;;;;;;;;;6262253;28;20064;-78
2022/05/19 09:23:46;;;;;;;2.53;2.25;;;;;;;;;;6260322;28;20037;-81
2022/05/19 09:26:55;;;;;;;2.83;2.20;;;;;;;;;;6261602;28;20057;-79
2022/05/19 09:29:58;;;;;;;3.95;2.65;;;;;;;;;;6281158;28;20080;-82
2022/05/19 09:33:17;;;;;;;4.28;2.42;;;;;;;;;;6291249;28;20067;-81
2022/05/19 09:36:19;;;;;;;2.92;2.08;;;;;;;;;;6312684;28;20072;-81
2022/05/19 09:39:22;;;;;;;4.65;2.42;;;;;;;;;;6308853;28;20124;-80
2022/05/19 09:42:34;;;;;;;3.83;2.50;;;;;;;;;;6295855;28;20123;-81
2022/05/19 09:45:38;;;;;;;4.50;2.20;;;;;;;;;;6301489;28;20068;-82
2022/05/19 09:48:48;;;;;;;5.32;2.30;;;;;;;;;;6287051;28;20068;-82
2022/05/19 09:51:51;;;;;;;2.88;2.05;;;;;;;;;;6286781;28;20048;-81
2022/05/19 09:54:56;;;;;;;3.10;2.35;;;;;;;;;;6288607;28;20489;-78
2022/05/19 09:58:02;;;;;;;4.15;2.10;;;;;;;;;;6309549;28;20104;-78
2022/05/19 10:01:08;;;;;;;2.40;2.20;;;;;;;;;;6311512;28;20090;-80
2022/05/19 10:04:17;;;;;;;3.60;2.13;;;;;;;;;;6295807;28;20119;-79
2022/05/19 10:07:24;;;;;;;5.22;2.40;;;;;;;;;;6285697;28;20109;-79
2022/05/19 10:10:29;;;;;;;3.85;2.40;;;;;;;;;;6285848;28;20155;-79
2022/05/19 10:13:42;;;;;;;4.63;2.30;;;;;;;;;;6292333;28;20112;-79
2022/05/19 10:16:52;;;;;;;;;;;;;;;;;;6295314;28;20857;-79
2022/05/19 10:20:04;;;;;;;2.95;2.28;;;;;;;;;;6287065;28;19973;-80
2022/05/19 10:23:39;;;;;;;3.53;2.30;;;;;;;;;;6289665;28;20055;-79
2022/05/19 10:31:05;;;;;;;3.30;3.00;;;;;;;;;;6253651;28;20098;-79
2022/05/19 10:34:28;;;;;;;2.78;2.40;;;;;;;;;;6281124;28;20041;-79
2022/05/19 10:38:00;;;;;;;5.55;2.47;;;;;;;;;;6284554;28;20052;-80
2022/05/19 10:41:31;;;;;;;2.57;2.37;;;;;;;;;;6292716;28;20449;-78
2022/05/19 10:45:23;;;;;;;7.35;2.45;;;;;;;;;;6294407;28;20550;-79
2022/05/19 10:48:53;;;;;;;3.47;2.30;;;;;;;;;;6275382;28;20048;-78
2022/05/19 10:52:18;;;;;;;4.85;2.35;;;;;;;;;;6248648;28;20100;-80
2022/05/19 10:55:28;;;;;;;3.20;2.42;;;;;;;;;;6261976;28;20084;-80
2022/05/19 10:58:55;;;;;;;6.25;2.42;;;;;;;;;;6296597;28;20523;-81
2022/05/19 11:02:43;;;;;;;3.00;2.38;;;;;;;;;;6291120;28;20087;-81
2022/05/19 11:06:17;;;;;;;5.32;2.85;;;;;;;;;;6266673;28;20083;-82
2022/05/19 11:09:22;;;;;;;2.95;2.40;;;;;;;;;;6255391;28;20120;-80
2022/05/19 11:12:46;;;;;;;3.17;2.55;;;;;;;;;;6270648;28;20059;-83
2022/05/19 11:16:10;;;;;;;4.22;2.35;;;;;;;;;;6296948;28;20036;-82
2022/05/19 11:19:23;;;;;;;3.17;2.50;;;;;;;;;;6294203;28;20044;-81
2022/05/19 11:22:30;;;;;;;3.00;2.50;;;;;;;;;;6297706;28;20048;-81
2022/05/19 11:29:08;;;;;;;2.78;2.35;;;;;;;;;;6314082;28;20054;-81
2022/05/19 11:32:22;;;;;;;7.25;2.53;;;;;;;;;;6319530;28;20077;-82
2022/05/19 11:35:29;;;;;;;3.38;2.83;;;;;;;;;;6296541;28;20059;-80
2022/05/19 11:38:42;;;;;;;4.55;2.50;;;;;;;;;;6297638;28;20041;-80
2022/05/19 11:41:47;;;;;;;4.15;2.65;;;;;;;;;;6294844;28;20122;-82
2022/05/19 11:44:49;;;;;;;3.65;2.78;;;;;;;;;;6295115;28;20145;-82
2022/05/19 11:55:42;;;;;;;9.13;3.00;;;;;;;;;;6297072;28;20055;-83
2022/05/19 11:58:44;;;;;;;4.38;2.83;;;;;;;;;;6266120;28;20054;-83
2022/05/19 12:01:49;;;;;;;6.80;2.50;;;;;;;;;;6300769;28;20037;-83
2022/05/19 12:04:59;;;;;;;5.38;2.85;;;;;;;;;;6316541;28;20044;-83
2022/05/19 12:08:35;;;;;;;4.72;2.90;;;;;;;;;;6324486;28;20052;-80
2022/05/19 12:11:52;;;;;;;3.78;2.90;;;;;;;;;;6300458;28;20064;-84
2022/05/19 12:15:27;;;;;;;3.20;2.90;;;;;;;;;;6274177;28;20064;-83
2022/05/19 12:18:28;;;;;;;5.68;2.90;;;;;;;;;;6294332;28;20049;-84
2022/05/19 12:21:38;;;;;;;4.35;2.88;;;;;;;;;;6294968;28;20045;-82
2022/05/19 12:25:11;;;;;;;3.63;2.65;;;;;;;;;;6292958;28;20056;-81
2022/05/19 12:28:13;;;;;;;4.78;3.08;;;;;;;;;;6281597;28;20157;-82
2022/05/19 12:34:51;;;;;;;4.47;2.85;;;;;;;;;;6266560;28;20140;-82
2022/05/19 12:38:18;;;;;;;2.80;2.50;;;;;;;;;;6294405;28;20517;-82
2022/05/19 12:41:23;;;;;;;3.13;2.80;;;;;;;;;;6290498;28;20104;-82
2022/05/19 12:44:44;;;;;;;4.38;2.80;;;;;;;;;;6295085;28;20044;-82
2022/05/19 12:47:54;;;;;;;3.80;2.75;;;;;;;;;;6290089;28;20175;-81
2022/05/19 12:51:08;;;;;;;3.25;3.05;;;;;;;;;;6294822;28;20063;-81
2022/05/19 12:54:10;;;;;;;5.68;2.53;;;;;;;;;;6296935;28;20040;-82
2022/05/19 12:57:12;;;;;;;3.30;2.83;;;;;;;;;;6314371;28;20047;-82
2022/05/19 13:00:20;;;;;;;4.10;2.88;;;;;;;;;;6317153;28;20044;-82
2022/05/19 13:03:25;;;;;;;3.42;2.85;;;;;;;;;;6313228;28;20044;-82
2022/05/19 13:06:27;;;;;;;3.78;2.60;;;;;;;;;;6283987;28;20086;-83
2022/05/19 13:09:32;;;;;;;3.25;2.85;;;;;;;;;;6292360;28;20044;-81
2022/05/19 13:12:48;;;;;;;4.93;2.72;;;;;;;;;;6293107;28;20048;-82
2022/05/19 13:15:54;;;;;;;3.90;2.63;;;;;;;;;;6278176;28;21378;-82
2022/05/19 13:19:00;;;;;;;3.78;2.95;;;;;;;;;;6290877;28;20072;-81
2022/05/19 13:22:20;;;;;;;4.30;2.83;;;;;;;;;;6301760;28;20178;-82
2022/05/19 13:25:22;;;;;;;3.58;2.85;;;;;;;;;;6287876;28;20541;-82
2022/05/19 13:32:00;;;;;;;5.03;2.90;;;;;;;;;;6287752;28;20048;-82
2022/05/19 13:35:08;;;;;;;6.40;3.10;;;;;;;;;;6287902;28;20091;-81
2022/05/19 13:38:22;;;;;;;3.72;3.08;;;;;;;;;;6311531;28;20051;-82
2022/05/19 13:41:24;;;;;;;4.22;2.80;;;;;;;;;;6310129;28;20048;-82
2022/05/19 13:44:34;;;;;;;5.45;3.00;;;;;;;;;;6287378;28;20339;-80
2022/05/19 13:47:37;;;;;;;4.47;2.97;;;;;;;;;;6288175;28;20056;-81
2022/05/19 13:50:39;;;;;;;4.68;2.90;;;;;;;;;;6288127;28;20059;-81
2022/05/19 13:53:42;;;;;;;;;;;;;;;;;;6294020;28;20045;-80
2022/05/19 13:56:46;;;;;;;4.25;3.00;;;;;;;;;;6291001;28;19928;-80
2022/05/19 13:59:50;;;;;;;4.75;3.08;;;;;;;;;;6293937;28;20044;-80
2022/05/19 14:02:55;;;;;;;4.00;3.05;;;;;;;;;;6289068;28;20047;-81
2022/05/19 14:05:57;;;;;;;5.65;3.42;;;;;;;;;;6315170;28;20395;-80
2022/05/19 14:09:01;;;;;;;5.40;2.97;;;;;;;;;;6289274;28;20300;-80
2022/05/19 14:12:35;;;;;;;3.78;2.90;;;;;;;;;;6285752;28;20045;-80
2022/05/19 14:15:46;;;;;;;4.15;3.00;;;;;;;;;;6262121;28;20329;-80
2022/05/19 14:18:59;;;;;;;3.60;3.30;;;;;;;;;;6302659;28;20110;-80
2022/05/19 14:22:02;;;;;;;7.43;3.50;;;;;;;;;;6313290;28;20060;-81
2022/05/19 14:25:09;;;;;;;5.15;3.22;;;;;;;;;;6291413;28;20806;-81
2022/05/19 14:28:34;;;;;;;3.80;3.50;;;;;;;;;;6304403;28;20044;-79
2022/05/19 14:31:44;;;;;;;5.03;3.42;;;;;;;;;;6315978;28;20044;-82
2022/05/19 14:34:47;;;;;;;4.10;3.25;;;;;;;;;;6289624;28;20051;-81
2022/05/19 14:37:53;;;;;;;6.28;3.83;;;;;;;;;;6294147;28;20125;-81
2022/05/19 14:44:22;;;;;;;6.13;3.90;;;;;;;;;;6308079;28;20059;-81
2022/05/19 14:47:26;;;;;;;6.05;3.78;;;;;;;;;;6301894;28;20098;-80
2022/05/19 14:50:33;;;;;;;4.18;3.70;;;;;;;;;;6290407;28;20070;-81
2022/05/19 14:53:36;;;;;;;6.00;3.80;;;;;;;;;;6290508;28;20037;-82
2022/05/19 14:56:43;;;;;;;5.55;3.75;;;;;;;;;;6294302;28;20036;-81
2022/05/19 14:59:54;;;;;;;4.10;3.70;;;;;;;;;;6313198;28;20054;-80
2022/05/19 15:03:03;;;;;;;8.82;5.00;;;;;;;;;;6306980;28;20082;-79
2022/05/19 15:06:05;;;;;;;4.82;4.30;;;;;;;;;;6322646;28;20040;-79
2022/05/19 15:09:07;;;;;;;10.88;4.50;;;;;;;;;;6322591;28;20044;-79
2022/05/19 15:12:09;;;;;;;6.07;4.65;;;;;;;;;;6307709;28;20044;-80
2022/05/19 15:15:12;;;;;;;5.40;4.55;;;;;;;;;;6305288;28;20048;-80
2022/05/19 15:18:14;;;;;;;7.03;4.50;;;;;;;;;;6296981;28;20143;-80
2022/05/19 15:21:18;;;;;;;6.10;4.40;;;;;;;;;;6294561;28;20054;-81
2022/05/19 15:24:20;;;;;;;9.20;4.93;;;;;;;;;;6289554;28;20102;-81
2022/05/19 15:27:27;;;;;;;6.72;6.13;;;;;;;;;;6288243;28;20146;-79
2022/05/19 15:30:32;;;;;;;25.50;4.38;;;;;;;;;;6285296;28;20143;-80
2022/05/19 15:33:33;;;;;;;18.30;4.30;;;;;;;;;;6294689;28;20491;-78
2022/05/19 15:36:35;;;;;;;8.00;3.60;;;;;;;;;;6268990;28;20033;-84
2022/05/19 15:39:37;;;;;;;11.23;4.05;;;;;;;;;;6300809;28;20044;-86
2022/05/19 15:42:39;;;;;;;9.88;4.25;;;;;;;;;;6279587;28;20060;-85
2022/05/19 15:45:41;;;;;;;22.70;4.78;;;;;;;;;;6292304;28;20052;-80
2022/05/19 15:48:43;;;;;;;14.73;4.40;;;;;;;;;;6290548;28;20064;-81
2022/05/19 15:51:44;;;;;;;10.32;3.88;;;;;;;;;;6289712;28;20048;-81
2022/05/19 15:54:47;;;;;;;8.23;4.35;;;;;;;;;;6300226;28;20058;-77
2022/05/19 15:57:52;;;;;;;9.95;4.88;;;;;;;;;;6300638;28;20078;-78
2022/05/19 16:00:56;;;;;;;5.75;4.95;;;;;;;;;;6289025;28;20079;-79
2022/05/19 16:03:57;;;;;;;8.88;4.78;;;;;;;;;;6285938;28;20108;-80
2022/05/19 16:06:59;;;;;;;5.47;4.10;;;;;;;;;;6288469;28;20048;-79
2022/05/19 16:10:02;;;;;;;7.45;4.43;;;;;;;;;;6311229;28;20127;-79
2022/05/19 16:13:04;;;;;;;9.02;4.50;;;;;;;;;;6311524;28;20079;-79
2022/05/19 16:16:07;;;;;;;7.30;4.60;;;;;;;;;;6311795;28;20064;-78
2022/05/19 16:19:09;;;;;;;8.95;4.53;;;;;;;;;;6329568;28;20040;-85
2022/05/19 16:22:20;;;;;;;6.25;3.97;;;;;;;;;;6321673;28;20067;-85
2022/05/19 16:25:29;;;;;;;6.82;4.35;;;;;;;;;;6319128;28;20063;-82
2022/05/19 16:28:31;;;;;;;8.32;4.30;;;;;;;;;;6304422;28;20121;-83
2022/05/19 16:31:32;;;;;;;6.53;4.28;;;;;;;;;;6280771;28;20049;-84
2022/05/19 16:34:34;;;;;;;8.68;4.93;;;;;;;;;;6301623;28;20044;-84
2022/05/19 16:37:47;;;;;;;10.00;5.70;;;;;;;;;;6296564;28;20040;-87
2022/05/19 16:40:50;;;;;;;9.80;5.25;;;;;;;;;;6287145;28;20110;-85
2022/05/19 16:43:56;;;;;;;9.35;4.82;;;;;;;;;;6263325;28;20048;-84
2022/05/19 16:46:58;;;;;;;;;;;;;;;;;;6313529;28;20056;-78
2022/05/19 16:50:00;;;;;;;7.63;4.43;;;;;;;;;;6314593;28;19978;-79
2022/05/19 16:53:03;;;;;;;9.38;4.78;;;;;;;;;;6284286;28;20719;-79
2022/05/19 16:59:25;;;;;;;8.90;4.80;;;;;;;;;;6286198;28;20124;-80
2022/05/19 17:02:27;;;;;;;8.85;4.60;;;;;;;;;;6296896;28;20059;-80
2022/05/19 17:05:38;;;;;;;9.50;4.95;;;;;;;;;;6262695;28;20056;-80
2022/05/19 17:08:39;;;;;;;8.25;4.90;;;;;;;;;;6264112;28;20048;-80
2022/05/19 17:11:41;;;;;;;16.10;4.90;;;;;;;;;;6262770;28;20049;-80
2022/05/19 17:14:43;;;;;;;8.18;4.72;;;;;;;;;;6288000;28;20044;-80
2022/05/19 17:17:46;;;;;;;9.82;4.80;;;;;;;;;;6287908;28;20064;-81
2022/05/19 17:20:49;;;;;;;10.05;4.68;;;;;;;;;;6311672;28;20120;-80
2022/05/19 17:23:51;;;;;;;12.30;5.45;;;;;;;;;;6285906;28;20048;-80
2022/05/19 17:26:53;;;;;;;8.45;5.45;;;;;;;;;;6283956;28;20785;-81
2022/05/19 17:29:55;;;;;;;10.07;5.35;;;;;;;;;;6318169;28;20186;-80
2022/05/19 17:32:57;;;;;;;7.35;4.90;;;;;;;;;;6320789;28;20579;-80
2022/05/19 17:36:02;;;;;;;13.63;5.72;;;;;;;;;;6309955;28;20066;-80
2022/05/19 17:39:09;;;;;;;9.90;5.15;;;;;;;;;;6311531;28;20040;-81
2022/05/19 17:42:11;;;;;;;10.02;5.50;;;;;;;;;;6270993;28;20109;-80
2022/05/19 17:45:14;;;;;;;8.70;5.70;;;;;;;;;;6283211;28;20064;-80
2022/05/19 17:48:17;;;;;;;8.82;5.32;;;;;;;;;;6288197;28;20437;-80
2022/05/19 17:51:19;;;;;;;10.77;5.57;;;;;;;;;;6287069;28;20048;-81
2022/05/19 17:54:21;;;;;;;8.90;5.55;;;;;;;;;;6286549;28;20048;-80
2022/05/19 17:57:22;;;;;;;13.13;6.35;;;;;;;;;;6287171;28;20226;-81
2022/05/19 18:00:28;;;;;;;9.70;5.85;;;;;;;;;;6287819;28;20422;-79
2022/05/19 18:03:30;;;;;;;12.23;6.18;;;;;;;;;;6294982;28;20044;-82
2022/05/19 18:06:33;;;;;;;9.93;6.13;;;;;;;;;;6312677;28;20386;-79
2022/05/19 18:09:34;;;;;;;;;;;;;;;;;;6313215;28;20047;-80
2022/05/19 18:12:36;;;;;;;7.40;5.13;;;;;;;;;;6288652;28;20009;-81
2022/05/19 18:18:58;;;;;;;8.40;5.70;;;;;;;;;;6299296;28;20056;-79
2022/05/19 18:22:00;;;;;;;15.27;5.70;;;;;;;;;;6303571;28;20079;-79
2022/05/19 18:25:02;;;;;;;9.05;5.97;;;;;;;;;;6283276;28;20206;-79
2022/05/19 18:28:04;;;;;;;8.43;5.73;;;;;;;;;;6286282;28;20040;-79
2022/05/19 18:31:07;;;;;;;9.40;5.80;;;;;;;;;;6285593;28;20660;-79
2022/05/19 18:34:09;;;;;;;8.32;5.63;;;;;;;;;;6294571;28;20741;-79
2022/05/19 18:37:12;;;;;;;10.15;5.75;;;;;;;;;;6312554;28;20043;-79
2022/05/19 18:46:55;;;;;;;9.05;6.30;;;;;;;;;;6312462;28;20141;-80
2022/05/19 18:49:57;;;;;;;10.10;5.88;;;;;;;;;;6312692;28;20056;-80
2022/05/19 18:52:59;;;;;;;9.20;6.43;;;;;;;;;;6312838;28;20177;-80
2022/05/19 18:56:02;;;;;;;9.43;6.78;;;;;;;;;;6295711;28;20044;-79
2022/05/19 18:59:05;;;;;;;9.32;6.75;;;;;;;;;;6313322;28;20059;-80
2022/05/19 19:02:07;;;;;;;;;;;;;;;;;;6276302;28;20440;-80
2022/05/19 19:05:09;;;;;;;9.70;6.95;;;;;;;;;;6309942;28;19924;-80
2022/05/19 19:08:11;;;;;;;8.90;6.63;;;;;;;;;;6297304;28;20237;-81
2022/05/19 19:11:13;;;;;;;8.75;6.50;;;;;;;;;;6308667;28;20557;-81
2022/05/19 19:14:15;;;;;;;9.87;6.83;;;;;;;;;;6286503;28;20044;-79
2022/05/19 19:17:17;;;;;;;10.47;7.60;;;;;;;;;;6289462;28;20044;-79
2022/05/19 19:20:19;;;;;;;11.02;8.00;;;;;;;;;;6285571;28;20446;-79
2022/05/19 19:23:21;;;;;;;13.15;7.72;;;;;;;;;;6285360;28;20182;-79